sensor_id;sensor_type;location;lat;lon;timestamp;temperature;humidity
11989;DHT22;6054;50.966;7.094;2022-08-30T00:01:00;29.30;35.30
11989;DHT22;6054;50.966;7.094;2022-08-30T00:03:31;29.10;35.70
11989;DHT22;6054;50.966;7.094;2022-08-30T00:05:58;29.20;36.10
11989;DHT22;6054;50.966;7.094;2022-08-30T00:08:25;29.00;35.00
11989;DHT22;6054;50.966;7.094;2022-08-30T00:10:52;29.00;35.40
11989;DHT22;6054;50.966;7.094;2022-08-30T00:13:20;29.10;35.20
11989;DHT22;6054;50.966;7.094;2022-08-30T00:15:47;28.90;36.00
11989;DHT22;6054;50.966;7.094;2022-08-30T00:18:16;29.00;35.80
11989;DHT22;6054;50.966;7.094;2022-08-30T00:20:44;28.70;35.90
11989;DHT22;6054;50.966;7.094;2022-08-30T00:23:11;28.70;36.10
11989;DHT22;6054;50.966;7.094;2022-08-30T00:25:38;28.60;35.60
11989;DHT22;6054;50.966;7.094;2022-08-30T00:28:06;28.60;36.30
11989;DHT22;6054;50.966;7.094;2022-08-30T00:30:34;28.50;36.10
11989;DHT22;6054;50.966;7.094;2022-08-30T00:33:01;28.50;36.20
11989;DHT22;6054;50.966;7.094;2022-08-30T00:35:29;28.40;36.20
11989;DHT22;6054;50.966;7.094;2022-08-30T00:37:56;28.40;35.70
11989;DHT22;6054;50.966;7.094;2022-08-30T00:40:24;28.30;36.00
11989;DHT22;6054;50.966;7.094;2022-08-30T00:42:51;28.30;36.30
11989;DHT22;6054;50.966;7.094;2022-08-30T00:45:20;28.30;36.00
11989;DHT22;6054;50.966;7.094;2022-08-30T00:47:48;28.20;36.80
11989;DHT22;6054;50.966;7.094;2022-08-30T00:50:18;28.20;36.40
11989;DHT22;6054;50.966;7.094;2022-08-30T00:52:49;28.20;37.10
11989;DHT22;6054;50.966;7.094;2022-08-30T00:55:17;28.10;37.10
11989;DHT22;6054;50.966;7.094;2022-08-30T00:57:45;28.00;37.00
11989;DHT22;6054;50.966;7.094;2022-08-30T01:00:14;28.00;36.90
11989;DHT22;6054;50.966;7.094;2022-08-30T01:02:42;28.00;37.30
11989;DHT22;6054;50.966;7.094;2022-08-30T01:05:10;28.00;37.20
11989;DHT22;6054;50.966;7.094;2022-08-30T01:07:38;28.00;37.30
11989;DHT22;6054;50.966;7.094;2022-08-30T01:10:08;27.90;37.60
11989;DHT22;6054;50.966;7.094;2022-08-30T01:12:36;27.90;37.90
11989;DHT22;6054;50.966;7.094;2022-08-30T01:15:05;27.90;37.80
11989;DHT22;6054;50.966;7.094;2022-08-30T01:17:33;27.90;38.00
11989;DHT22;6054;50.966;7.094;2022-08-30T01:20:03;27.80;37.50
11989;DHT22;6054;50.966;7.094;2022-08-30T01:22:35;27.90;37.80
11989;DHT22;6054;50.966;7.094;2022-08-30T01:25:07;27.80;38.00
11989;DHT22;6054;50.966;7.094;2022-08-30T01:27:37;27.80;38.00
11989;DHT22;6054;50.966;7.094;2022-08-30T01:30:06;27.80;37.70
11989;DHT22;6054;50.966;7.094;2022-08-30T01:32:38;27.90;38.00
11989;DHT22;6054;50.966;7.094;2022-08-30T01:35:06;27.80;38.10
11989;DHT22;6054;50.966;7.094;2022-08-30T01:37:34;27.80;38.00
11989;DHT22;6054;50.966;7.094;2022-08-30T01:40:02;27.80;38.00
11989;DHT22;6054;50.966;7.094;2022-08-30T01:42:31;27.70;37.90
11989;DHT22;6054;50.966;7.094;2022-08-30T01:44:58;27.60;37.50
11989;DHT22;6054;50.966;7.094;2022-08-30T01:47:25;27.60;37.30
11989;DHT22;6054;50.966;7.094;2022-08-30T01:49:52;27.60;37.90
11989;DHT22;6054;50.966;7.094;2022-08-30T01:52:19;27.60;37.70
11989;DHT22;6054;50.966;7.094;2022-08-30T01:54:46;27.60;37.60
11989;DHT22;6054;50.966;7.094;2022-08-30T01:57:16;27.60;37.80
11989;DHT22;6054;50.966;7.094;2022-08-30T01:59:45;27.60;38.70
11989;DHT22;6054;50.966;7.094;2022-08-30T02:02:15;27.50;38.70
11989;DHT22;6054;50.966;7.094;2022-08-30T02:04:43;27.60;39.40
11989;DHT22;6054;50.966;7.094;2022-08-30T02:07:11;27.60;38.10
11989;DHT22;6054;50.966;7.094;2022-08-30T02:09:38;27.60;38.40
11989;DHT22;6054;50.966;7.094;2022-08-30T02:15:24;27.60;39.30
11989;DHT22;6054;50.966;7.094;2022-08-30T02:17:51;27.50;38.80
11989;DHT22;6054;50.966;7.094;2022-08-30T02:20:18;27.50;38.70
11989;DHT22;6054;50.966;7.094;2022-08-30T02:22:45;27.50;39.20
11989;DHT22;6054;50.966;7.094;2022-08-30T02:25:12;27.50;38.90
11989;DHT22;6054;50.966;7.094;2022-08-30T02:27:39;27.50;39.10
11989;DHT22;6054;50.966;7.094;2022-08-30T02:30:07;27.50;37.90
11989;DHT22;6054;50.966;7.094;2022-08-30T02:32:36;27.50;39.20
11989;DHT22;6054;50.966;7.094;2022-08-30T02:35:03;27.50;38.30
11989;DHT22;6054;50.966;7.094;2022-08-30T02:37:30;27.50;39.10
11989;DHT22;6054;50.966;7.094;2022-08-30T02:39:57;27.40;36.90
11989;DHT22;6054;50.966;7.094;2022-08-30T02:42:24;27.60;38.40
11989;DHT22;6054;50.966;7.094;2022-08-30T02:44:50;27.40;39.00
11989;DHT22;6054;50.966;7.094;2022-08-30T02:47:17;27.40;39.00
11989;DHT22;6054;50.966;7.094;2022-08-30T02:49:45;27.30;38.70
11989;DHT22;6054;50.966;7.094;2022-08-30T02:52:12;27.40;39.10
11989;DHT22;6054;50.966;7.094;2022-08-30T02:54:39;27.30;39.00
11989;DHT22;6054;50.966;7.094;2022-08-30T02:57:06;27.30;39.00
11989;DHT22;6054;50.966;7.094;2022-08-30T02:59:33;27.30;38.30
11989;DHT22;6054;50.966;7.094;2022-08-30T03:02:06;27.30;39.40
11989;DHT22;6054;50.966;7.094;2022-08-30T03:04:32;27.30;38.90
11989;DHT22;6054;50.966;7.094;2022-08-30T03:07:01;27.30;38.90
11989;DHT22;6054;50.966;7.094;2022-08-30T03:09:27;27.50;38.70
11989;DHT22;6054;50.966;7.094;2022-08-30T03:11:54;27.20;39.00
11989;DHT22;6054;50.966;7.094;2022-08-30T03:14:21;27.50;39.40
11989;DHT22;6054;50.966;7.094;2022-08-30T03:16:49;27.20;39.10
11989;DHT22;6054;50.966;7.094;2022-08-30T03:19:16;27.20;38.70
11989;DHT22;6054;50.966;7.094;2022-08-30T03:21:43;27.10;38.10
11989;DHT22;6054;50.966;7.094;2022-08-30T03:24:11;27.40;39.60
11989;DHT22;6054;50.966;7.094;2022-08-30T03:26:39;27.10;39.80
11989;DHT22;6054;50.966;7.094;2022-08-30T03:29:05;27.00;39.90
11989;DHT22;6054;50.966;7.094;2022-08-30T03:31:33;27.00;39.90
11989;DHT22;6054;50.966;7.094;2022-08-30T03:34:01;27.00;39.80
11989;DHT22;6054;50.966;7.094;2022-08-30T03:36:28;27.00;40.20
11989;DHT22;6054;50.966;7.094;2022-08-30T03:38:55;27.00;40.20
11989;DHT22;6054;50.966;7.094;2022-08-30T03:41:23;27.00;40.20
11989;DHT22;6054;50.966;7.094;2022-08-30T03:43:50;27.00;39.80
11989;DHT22;6054;50.966;7.094;2022-08-30T03:46:17;26.90;39.80
11989;DHT22;6054;50.966;7.094;2022-08-30T03:48:44;26.90;40.00
11989;DHT22;6054;50.966;7.094;2022-08-30T03:51:10;26.80;39.90
11989;DHT22;6054;50.966;7.094;2022-08-30T03:53:37;26.90;40.10
11989;DHT22;6054;50.966;7.094;2022-08-30T03:56:04;26.80;40.10
11989;DHT22;6054;50.966;7.094;2022-08-30T03:58:33;26.80;39.50
11989;DHT22;6054;50.966;7.094;2022-08-30T04:00:59;26.80;40.00
11989;DHT22;6054;50.966;7.094;2022-08-30T04:03:26;26.70;39.70
11989;DHT22;6054;50.966;7.094;2022-08-30T04:05:54;26.90;40.20
11989;DHT22;6054;50.966;7.094;2022-08-30T04:08:21;26.70;40.80
11989;DHT22;6054;50.966;7.094;2022-08-30T04:10:49;26.80;41.00
11989;DHT22;6054;50.966;7.094;2022-08-30T04:13:18;26.70;40.80
11989;DHT22;6054;50.966;7.094;2022-08-30T04:15:46;26.80;41.10
11989;DHT22;6054;50.966;7.094;2022-08-30T04:18:13;26.80;40.50
11989;DHT22;6054;50.966;7.094;2022-08-30T04:20:40;26.70;40.60
11989;DHT22;6054;50.966;7.094;2022-08-30T04:23:07;26.60;41.00
11989;DHT22;6054;50.966;7.094;2022-08-30T04:25:35;26.80;40.70
11989;DHT22;6054;50.966;7.094;2022-08-30T04:28:03;26.60;41.40
11989;DHT22;6054;50.966;7.094;2022-08-30T04:30:31;26.50;41.40
11989;DHT22;6054;50.966;7.094;2022-08-30T04:32:59;26.40;41.40
11989;DHT22;6054;50.966;7.094;2022-08-30T04:35:26;26.40;40.70
11989;DHT22;6054;50.966;7.094;2022-08-30T04:37:53;26.40;40.70
11989;DHT22;6054;50.966;7.094;2022-08-30T04:40:20;26.40;40.70
11989;DHT22;6054;50.966;7.094;2022-08-30T04:42:47;26.30;40.40
11989;DHT22;6054;50.966;7.094;2022-08-30T04:45:19;26.50;41.60
11989;DHT22;6054;50.966;7.094;2022-08-30T04:47:46;26.30;41.30
11989;DHT22;6054;50.966;7.094;2022-08-30T04:50:17;26.30;41.00
11989;DHT22;6054;50.966;7.094;2022-08-30T04:52:45;26.20;41.70
11989;DHT22;6054;50.966;7.094;2022-08-30T04:55:13;26.20;41.60
11989;DHT22;6054;50.966;7.094;2022-08-30T04:57:40;26.20;41.80
11989;DHT22;6054;50.966;7.094;2022-08-30T05:00:10;26.30;41.70
11989;DHT22;6054;50.966;7.094;2022-08-30T05:02:38;26.10;41.90
11989;DHT22;6054;50.966;7.094;2022-08-30T05:05:07;26.10;42.00
11989;DHT22;6054;50.966;7.094;2022-08-30T05:07:54;26.10;42.10
11989;DHT22;6054;50.966;7.094;2022-08-30T05:10:21;26.10;42.20
11989;DHT22;6054;50.966;7.094;2022-08-30T05:12:48;26.10;42.20
11989;DHT22;6054;50.966;7.094;2022-08-30T05:15:15;26.20;41.90
11989;DHT22;6054;50.966;7.094;2022-08-30T05:17:42;26.00;41.80
11989;DHT22;6054;50.966;7.094;2022-08-30T05:20:11;26.00;41.60
11989;DHT22;6054;50.966;7.094;2022-08-30T05:22:38;26.00;42.20
11989;DHT22;6054;50.966;7.094;2022-08-30T05:25:07;26.00;42.30
11989;DHT22;6054;50.966;7.094;2022-08-30T05:27:34;26.00;42.10
11989;DHT22;6054;50.966;7.094;2022-08-30T05:30:01;26.00;41.70
11989;DHT22;6054;50.966;7.094;2022-08-30T05:32:30;26.10;42.50
11989;DHT22;6054;50.966;7.094;2022-08-30T05:34:57;26.20;41.70
11989;DHT22;6054;50.966;7.094;2022-08-30T05:37:24;26.10;41.80
11989;DHT22;6054;50.966;7.094;2022-08-30T05:39:50;26.10;41.90
11989;DHT22;6054;50.966;7.094;2022-08-30T05:42:19;26.10;41.90
11989;DHT22;6054;50.966;7.094;2022-08-30T05:44:49;26.10;41.70
11989;DHT22;6054;50.966;7.094;2022-08-30T05:47:16;26.10;42.30
11989;DHT22;6054;50.966;7.094;2022-08-30T05:49:43;26.20;41.90
11989;DHT22;6054;50.966;7.094;2022-08-30T05:52:10;26.10;42.00
11989;DHT22;6054;50.966;7.094;2022-08-30T05:54:38;26.20;41.80
11989;DHT22;6054;50.966;7.094;2022-08-30T05:57:05;26.20;42.10
11989;DHT22;6054;50.966;7.094;2022-08-30T05:59:34;26.30;42.80
11989;DHT22;6054;50.966;7.094;2022-08-30T06:02:01;26.20;42.00
11989;DHT22;6054;50.966;7.094;2022-08-30T06:04:29;26.50;43.10
11989;DHT22;6054;50.966;7.094;2022-08-30T06:06:56;26.50;42.50
11989;DHT22;6054;50.966;7.094;2022-08-30T06:09:23;26.40;41.90
11989;DHT22;6054;50.966;7.094;2022-08-30T06:11:50;26.60;41.90
11989;DHT22;6054;50.966;7.094;2022-08-30T06:14:17;26.60;41.60
11989;DHT22;6054;50.966;7.094;2022-08-30T06:16:45;26.60;41.70
11989;DHT22;6054;50.966;7.094;2022-08-30T06:19:13;26.80;42.20
11989;DHT22;6054;50.966;7.094;2022-08-30T06:21:45;26.70;42.00
11989;DHT22;6054;50.966;7.094;2022-08-30T06:24:12;26.80;42.40
11989;DHT22;6054;50.966;7.094;2022-08-30T06:26:41;26.90;42.40
11989;DHT22;6054;50.966;7.094;2022-08-30T06:29:08;27.10;42.60
11989;DHT22;6054;50.966;7.094;2022-08-30T06:31:36;27.00;42.40
11989;DHT22;6054;50.966;7.094;2022-08-30T06:34:04;27.00;42.20
11989;DHT22;6054;50.966;7.094;2022-08-30T06:36:31;27.00;41.90
11989;DHT22;6054;50.966;7.094;2022-08-30T06:38:59;27.20;42.00
11989;DHT22;6054;50.966;7.094;2022-08-30T06:41:28;27.30;42.00
11989;DHT22;6054;50.966;7.094;2022-08-30T06:43:56;27.10;42.20
11989;DHT22;6054;50.966;7.094;2022-08-30T06:46:25;27.20;42.20
11989;DHT22;6054;50.966;7.094;2022-08-30T06:48:53;27.50;42.40
11989;DHT22;6054;50.966;7.094;2022-08-30T06:51:23;27.30;42.50
11989;DHT22;6054;50.966;7.094;2022-08-30T06:53:50;27.40;41.50
11989;DHT22;6054;50.966;7.094;2022-08-30T06:56:18;27.50;41.10
11989;DHT22;6054;50.966;7.094;2022-08-30T06:58:46;27.50;41.60
11989;DHT22;6054;50.966;7.094;2022-08-30T07:01:15;27.80;41.40
11989;DHT22;6054;50.966;7.094;2022-08-30T07:03:42;27.80;41.40
11989;DHT22;6054;50.966;7.094;2022-08-30T07:06:10;27.70;40.50
11989;DHT22;6054;50.966;7.094;2022-08-30T07:08:38;27.80;40.50
11989;DHT22;6054;50.966;7.094;2022-08-30T07:11:05;27.80;40.00
11989;DHT22;6054;50.966;7.094;2022-08-30T07:13:33;27.80;40.60
11989;DHT22;6054;50.966;7.094;2022-08-30T07:16:00;27.90;40.70
11989;DHT22;6054;50.966;7.094;2022-08-30T07:18:27;27.90;40.40
11989;DHT22;6054;50.966;7.094;2022-08-30T07:21:13;27.90;40.40
11989;DHT22;6054;50.966;7.094;2022-08-30T07:23:43;28.00;40.60
11989;DHT22;6054;50.966;7.094;2022-08-30T07:26:13;28.20;40.70
11989;DHT22;6054;50.966;7.094;2022-08-30T07:28:41;28.20;40.60
11989;DHT22;6054;50.966;7.094;2022-08-30T07:31:26;28.50;40.80
11989;DHT22;6054;50.966;7.094;2022-08-30T07:33:53;28.30;40.40
11989;DHT22;6054;50.966;7.094;2022-08-30T07:36:22;28.40;40.10
11989;DHT22;6054;50.966;7.094;2022-08-30T07:38:51;28.50;40.20
11989;DHT22;6054;50.966;7.094;2022-08-30T07:41:21;28.60;39.70
11989;DHT22;6054;50.966;7.094;2022-08-30T07:43:48;28.70;39.60
11989;DHT22;6054;50.966;7.094;2022-08-30T07:46:15;28.80;39.70
11989;DHT22;6054;50.966;7.094;2022-08-30T07:48:42;28.90;39.50
11989;DHT22;6054;50.966;7.094;2022-08-30T07:51:11;29.00;38.70
11989;DHT22;6054;50.966;7.094;2022-08-30T07:53:39;29.30;39.00
11989;DHT22;6054;50.966;7.094;2022-08-30T07:56:07;29.20;38.50
11989;DHT22;6054;50.966;7.094;2022-08-30T07:58:35;29.20;36.50
11989;DHT22;6054;50.966;7.094;2022-08-30T08:01:03;29.30;37.40
11989;DHT22;6054;50.966;7.094;2022-08-30T08:03:30;29.40;36.90
11989;DHT22;6054;50.966;7.094;2022-08-30T08:05:56;29.50;36.30
11989;DHT22;6054;50.966;7.094;2022-08-30T08:08:23;29.60;35.40
11989;DHT22;6054;50.966;7.094;2022-08-30T08:10:50;29.60;35.40
11989;DHT22;6054;50.966;7.094;2022-08-30T08:13:19;29.80;36.40
11989;DHT22;6054;50.966;7.094;2022-08-30T08:15:46;29.60;35.60
11989;DHT22;6054;50.966;7.094;2022-08-30T08:18:12;29.80;35.20
11989;DHT22;6054;50.966;7.094;2022-08-30T08:20:40;29.90;36.20
11989;DHT22;6054;50.966;7.094;2022-08-30T08:25:39;30.00;36.80
11989;DHT22;6054;50.966;7.094;2022-08-30T08:28:07;30.10;36.40
11989;DHT22;6054;50.966;7.094;2022-08-30T08:30:36;30.10;36.00
11989;DHT22;6054;50.966;7.094;2022-08-30T08:33:04;30.40;36.30
11989;DHT22;6054;50.966;7.094;2022-08-30T08:35:32;30.30;36.30
11989;DHT22;6054;50.966;7.094;2022-08-30T08:37:59;30.40;36.30
11989;DHT22;6054;50.966;7.094;2022-08-30T08:40:26;30.50;36.10
11989;DHT22;6054;50.966;7.094;2022-08-30T08:42:59;30.60;35.30
11989;DHT22;6054;50.966;7.094;2022-08-30T08:45:42;30.60;35.50
11989;DHT22;6054;50.966;7.094;2022-08-30T08:48:22;30.70;35.40
11989;DHT22;6054;50.966;7.094;2022-08-30T08:50:51;30.70;35.10
11989;DHT22;6054;50.966;7.094;2022-08-30T08:53:36;30.80;34.30
11989;DHT22;6054;50.966;7.094;2022-08-30T08:56:05;30.80;34.70
11989;DHT22;6054;50.966;7.094;2022-08-30T08:58:40;30.90;34.70
11989;DHT22;6054;50.966;7.094;2022-08-30T09:01:11;31.00;34.60
11989;DHT22;6054;50.966;7.094;2022-08-30T09:03:38;31.10;34.60
11989;DHT22;6054;50.966;7.094;2022-08-30T09:06:14;31.20;34.10
11989;DHT22;6054;50.966;7.094;2022-08-30T09:08:45;31.30;34.20
11989;DHT22;6054;50.966;7.094;2022-08-30T09:11:19;31.50;33.30
11989;DHT22;6054;50.966;7.094;2022-08-30T09:16:52;31.70;33.80
11989;DHT22;6054;50.966;7.094;2022-08-30T09:19:40;31.90;33.10
11989;DHT22;6054;50.966;7.094;2022-08-30T09:22:22;32.00;33.30
11989;DHT22;6054;50.966;7.094;2022-08-30T09:24:54;32.10;33.00
11989;DHT22;6054;50.966;7.094;2022-08-30T09:27:25;32.20;32.80
11989;DHT22;6054;50.966;7.094;2022-08-30T09:29:55;32.30;32.40
11989;DHT22;6054;50.966;7.094;2022-08-30T09:32:36;32.50;32.40
11989;DHT22;6054;50.966;7.094;2022-08-30T09:35:09;32.60;31.90
11989;DHT22;6054;50.966;7.094;2022-08-30T09:38:02;32.40;30.80
11989;DHT22;6054;50.966;7.094;2022-08-30T09:40:35;32.80;31.50
11989;DHT22;6054;50.966;7.094;2022-08-30T09:43:08;32.80;30.60
11989;DHT22;6054;50.966;7.094;2022-08-30T09:45:39;32.90;30.60
11989;DHT22;6054;50.966;7.094;2022-08-30T09:48:26;33.00;29.60
11989;DHT22;6054;50.966;7.094;2022-08-30T09:51:02;33.20;29.80
11989;DHT22;6054;50.966;7.094;2022-08-30T09:53:33;33.30;29.90
11989;DHT22;6054;50.966;7.094;2022-08-30T09:56:05;33.30;28.70
11989;DHT22;6054;50.966;7.094;2022-08-30T10:01:27;33.50;29.20
11989;DHT22;6054;50.966;7.094;2022-08-30T10:04:01;33.70;28.40
11989;DHT22;6054;50.966;7.094;2022-08-30T10:06:37;33.50;26.80
11989;DHT22;6054;50.966;7.094;2022-08-30T10:09:28;33.70;27.70
11989;DHT22;6054;50.966;7.094;2022-08-30T10:12:04;33.80;27.70
11989;DHT22;6054;50.966;7.094;2022-08-30T10:14:50;33.90;27.70
11989;DHT22;6054;50.966;7.094;2022-08-30T10:17:25;34.00;27.60
11989;DHT22;6054;50.966;7.094;2022-08-30T10:20:08;33.90;27.00
11989;DHT22;6054;50.966;7.094;2022-08-30T10:22:40;34.10;27.70
11989;DHT22;6054;50.966;7.094;2022-08-30T10:25:11;34.20;27.60
11989;DHT22;6054;50.966;7.094;2022-08-30T10:27:43;34.30;27.10
11989;DHT22;6054;50.966;7.094;2022-08-30T10:30:14;34.50;26.60
11989;DHT22;6054;50.966;7.094;2022-08-30T10:32:47;34.50;26.50
11989;DHT22;6054;50.966;7.094;2022-08-30T10:35:18;34.60;26.90
11989;DHT22;6054;50.966;7.094;2022-08-30T10:37:49;34.60;26.70
11989;DHT22;6054;50.966;7.094;2022-08-30T10:40:22;34.60;26.60
11989;DHT22;6054;50.966;7.094;2022-08-30T10:43:14;34.70;27.10
11989;DHT22;6054;50.966;7.094;2022-08-30T10:45:46;34.70;27.20
11989;DHT22;6054;50.966;7.094;2022-08-30T10:48:17;34.70;26.90
11989;DHT22;6054;50.966;7.094;2022-08-30T10:50:49;34.70;27.20
11989;DHT22;6054;50.966;7.094;2022-08-30T10:53:20;34.70;27.40
11989;DHT22;6054;50.966;7.094;2022-08-30T10:55:52;34.80;27.30
11989;DHT22;6054;50.966;7.094;2022-08-30T10:58:20;34.90;27.10
11989;DHT22;6054;50.966;7.094;2022-08-30T11:00:58;34.90;27.00
11989;DHT22;6054;50.966;7.094;2022-08-30T11:03:50;35.00;27.00
11989;DHT22;6054;50.966;7.094;2022-08-30T11:06:25;35.10;27.00
11989;DHT22;6054;50.966;7.094;2022-08-30T11:09:16;35.10;26.30
11989;DHT22;6054;50.966;7.094;2022-08-30T11:11:59;35.20;26.70
11989;DHT22;6054;50.966;7.094;2022-08-30T11:14:28;35.00;26.70
11989;DHT22;6054;50.966;7.094;2022-08-30T11:16:58;35.30;25.90
11989;DHT22;6054;50.966;7.094;2022-08-30T11:19:27;35.30;26.60
11989;DHT22;6054;50.966;7.094;2022-08-30T11:22:10;35.30;26.70
11989;DHT22;6054;50.966;7.094;2022-08-30T11:25:04;35.40;25.60
11989;DHT22;6054;50.966;7.094;2022-08-30T11:27:47;35.30;26.70
11989;DHT22;6054;50.966;7.094;2022-08-30T11:30:45;35.30;26.90
11989;DHT22;6054;50.966;7.094;2022-08-30T11:33:37;35.30;26.70
11989;DHT22;6054;50.966;7.094;2022-08-30T11:36:06;35.20;26.60
11989;DHT22;6054;50.966;7.094;2022-08-30T11:38:57;35.20;27.10
11989;DHT22;6054;50.966;7.094;2022-08-30T11:41:36;35.20;26.80
11989;DHT22;6054;50.966;7.094;2022-08-30T11:44:29;35.30;26.60
11989;DHT22;6054;50.966;7.094;2022-08-30T11:46:57;35.30;26.50
11989;DHT22;6054;50.966;7.094;2022-08-30T11:49:50;35.30;26.50
11989;DHT22;6054;50.966;7.094;2022-08-30T11:52:35;35.30;26.40
11989;DHT22;6054;50.966;7.094;2022-08-30T11:55:34;35.40;26.50
11989;DHT22;6054;50.966;7.094;2022-08-30T11:58:13;35.40;26.80
11989;DHT22;6054;50.966;7.094;2022-08-30T12:00:44;35.40;26.50
11989;DHT22;6054;50.966;7.094;2022-08-30T12:03:27;35.40;26.50
11989;DHT22;6054;50.966;7.094;2022-08-30T12:05:58;35.50;26.80
11989;DHT22;6054;50.966;7.094;2022-08-30T12:08:43;35.60;26.30
11989;DHT22;6054;50.966;7.094;2022-08-30T12:14:46;35.60;26.80
11989;DHT22;6054;50.966;7.094;2022-08-30T12:17:32;35.70;26.60
11989;DHT22;6054;50.966;7.094;2022-08-30T12:20:37;35.70;26.60
11989;DHT22;6054;50.966;7.094;2022-08-30T12:23:17;35.70;26.50
11989;DHT22;6054;50.966;7.094;2022-08-30T12:25:44;35.80;26.70
11989;DHT22;6054;50.966;7.094;2022-08-30T12:28:15;35.90;26.30
11989;DHT22;6054;50.966;7.094;2022-08-30T12:30:43;35.90;26.50
11989;DHT22;6054;50.966;7.094;2022-08-30T12:33:11;35.90;26.10
11989;DHT22;6054;50.966;7.094;2022-08-30T12:35:40;36.00;26.30
11989;DHT22;6054;50.966;7.094;2022-08-30T12:38:13;35.90;26.20
11989;DHT22;6054;50.966;7.094;2022-08-30T12:40:49;36.00;26.20
11989;DHT22;6054;50.966;7.094;2022-08-30T12:43:22;36.00;26.30
11989;DHT22;6054;50.966;7.094;2022-08-30T12:45:51;35.90;26.20
11989;DHT22;6054;50.966;7.094;2022-08-30T12:48:20;35.90;25.90
11989;DHT22;6054;50.966;7.094;2022-08-30T12:50:53;36.00;24.30
11989;DHT22;6054;50.966;7.094;2022-08-30T12:53:24;35.90;26.10
11989;DHT22;6054;50.966;7.094;2022-08-30T12:55:54;36.00;26.40
11989;DHT22;6054;50.966;7.094;2022-08-30T12:58:36;36.10;25.30
11989;DHT22;6054;50.966;7.094;2022-08-30T13:01:17;36.20;26.80
11989;DHT22;6054;50.966;7.094;2022-08-30T13:03:54;36.20;27.10
11989;DHT22;6054;50.966;7.094;2022-08-30T13:06:38;36.20;26.90
11989;DHT22;6054;50.966;7.094;2022-08-30T13:09:08;36.20;26.80
11989;DHT22;6054;50.966;7.094;2022-08-30T13:11:36;36.30;27.30
11989;DHT22;6054;50.966;7.094;2022-08-30T13:14:31;36.20;26.90
11989;DHT22;6054;50.966;7.094;2022-08-30T13:17:18;36.20;26.90
11989;DHT22;6054;50.966;7.094;2022-08-30T13:19:56;36.20;27.20
11989;DHT22;6054;50.966;7.094;2022-08-30T13:25:09;36.00;27.50
11989;DHT22;6054;50.966;7.094;2022-08-30T13:27:38;36.20;26.60
11989;DHT22;6054;50.966;7.094;2022-08-30T13:30:09;36.30;26.30
11989;DHT22;6054;50.966;7.094;2022-08-30T13:32:37;36.40;27.00
11989;DHT22;6054;50.966;7.094;2022-08-30T13:35:06;36.40;26.60
11989;DHT22;6054;50.966;7.094;2022-08-30T13:37:33;36.50;27.00
11989;DHT22;6054;50.966;7.094;2022-08-30T13:40:00;36.60;26.80
11989;DHT22;6054;50.966;7.094;2022-08-30T13:42:27;36.60;26.70
11989;DHT22;6054;50.966;7.094;2022-08-30T13:44:54;36.70;26.50
11989;DHT22;6054;50.966;7.094;2022-08-30T13:47:21;36.70;26.70
11989;DHT22;6054;50.966;7.094;2022-08-30T13:49:49;36.70;26.80
11989;DHT22;6054;50.966;7.094;2022-08-30T13:52:19;36.70;26.50
11989;DHT22;6054;50.966;7.094;2022-08-30T13:54:47;36.70;27.10
11989;DHT22;6054;50.966;7.094;2022-08-30T13:57:15;36.70;27.00
11989;DHT22;6054;50.966;7.094;2022-08-30T13:59:42;36.80;27.10
11989;DHT22;6054;50.966;7.094;2022-08-30T14:02:09;36.80;26.60
11989;DHT22;6054;50.966;7.094;2022-08-30T14:04:36;36.90;26.30
11989;DHT22;6054;50.966;7.094;2022-08-30T14:07:04;37.00;26.60
11989;DHT22;6054;50.966;7.094;2022-08-30T14:09:31;37.00;26.70
11989;DHT22;6054;50.966;7.094;2022-08-30T14:11:58;37.10;26.50
11989;DHT22;6054;50.966;7.094;2022-08-30T14:14:25;37.00;26.10
11989;DHT22;6054;50.966;7.094;2022-08-30T14:16:52;37.00;25.90
11989;DHT22;6054;50.966;7.094;2022-08-30T14:19:19;37.10;26.20
11989;DHT22;6054;50.966;7.094;2022-08-30T14:21:46;36.90;26.20
11989;DHT22;6054;50.966;7.094;2022-08-30T14:24:14;36.90;26.30
11989;DHT22;6054;50.966;7.094;2022-08-30T14:26:43;36.90;26.40
11989;DHT22;6054;50.966;7.094;2022-08-30T14:29:13;36.90;26.40
11989;DHT22;6054;50.966;7.094;2022-08-30T14:31:41;36.80;26.50
11989;DHT22;6054;50.966;7.094;2022-08-30T14:34:09;36.80;26.70
11989;DHT22;6054;50.966;7.094;2022-08-30T14:36:39;36.90;26.70
11989;DHT22;6054;50.966;7.094;2022-08-30T14:39:09;36.80;26.70
11989;DHT22;6054;50.966;7.094;2022-08-30T14:41:42;36.80;26.90
11989;DHT22;6054;50.966;7.094;2022-08-30T14:44:09;36.80;27.00
11989;DHT22;6054;50.966;7.094;2022-08-30T14:46:36;36.70;26.70
11989;DHT22;6054;50.966;7.094;2022-08-30T14:49:03;36.70;26.50
11989;DHT22;6054;50.966;7.094;2022-08-30T14:51:30;36.70;26.80
11989;DHT22;6054;50.966;7.094;2022-08-30T14:53:57;36.60;26.50
11989;DHT22;6054;50.966;7.094;2022-08-30T14:56:24;36.60;26.50
11989;DHT22;6054;50.966;7.094;2022-08-30T14:58:53;36.60;26.10
11989;DHT22;6054;50.966;7.094;2022-08-30T15:01:25;36.60;27.20
11989;DHT22;6054;50.966;7.094;2022-08-30T15:03:52;36.70;27.40
11989;DHT22;6054;50.966;7.094;2022-08-30T15:06:19;36.70;26.90
11989;DHT22;6054;50.966;7.094;2022-08-30T15:08:46;36.70;27.00
11989;DHT22;6054;50.966;7.094;2022-08-30T15:11:15;36.70;27.40
11989;DHT22;6054;50.966;7.094;2022-08-30T15:13:42;36.80;27.40
11989;DHT22;6054;50.966;7.094;2022-08-30T15:16:13;36.80;27.40
11989;DHT22;6054;50.966;7.094;2022-08-30T15:18:40;36.80;27.50
11989;DHT22;6054;50.966;7.094;2022-08-30T15:21:25;36.80;27.20
11989;DHT22;6054;50.966;7.094;2022-08-30T15:23:54;36.80;27.70
11989;DHT22;6054;50.966;7.094;2022-08-30T15:26:39;36.80;27.30
11989;DHT22;6054;50.966;7.094;2022-08-30T15:29:30;36.80;27.50
11989;DHT22;6054;50.966;7.094;2022-08-30T15:32:00;36.90;27.60
11989;DHT22;6054;50.966;7.094;2022-08-30T15:34:28;36.80;27.10
11989;DHT22;6054;50.966;7.094;2022-08-30T15:36:59;36.90;27.50
11989;DHT22;6054;50.966;7.094;2022-08-30T15:39:42;36.90;26.90
11989;DHT22;6054;50.966;7.094;2022-08-30T15:42:09;36.90;27.20
11989;DHT22;6054;50.966;7.094;2022-08-30T15:44:36;36.90;27.30
11989;DHT22;6054;50.966;7.094;2022-08-30T15:47:04;36.90;27.10
11989;DHT22;6054;50.966;7.094;2022-08-30T15:49:31;37.00;27.10
11989;DHT22;6054;50.966;7.094;2022-08-30T15:52:00;37.00;27.20
11989;DHT22;6054;50.966;7.094;2022-08-30T15:54:27;37.10;27.10
11989;DHT22;6054;50.966;7.094;2022-08-30T15:56:54;37.20;27.20
11989;DHT22;6054;50.966;7.094;2022-08-30T15:59:24;37.10;27.10
11989;DHT22;6054;50.966;7.094;2022-08-30T16:01:50;37.10;27.40
11989;DHT22;6054;50.966;7.094;2022-08-30T16:04:19;37.10;26.90
11989;DHT22;6054;50.966;7.094;2022-08-30T16:06:47;37.00;27.20
11989;DHT22;6054;50.966;7.094;2022-08-30T16:09:14;36.90;27.50
11989;DHT22;6054;50.966;7.094;2022-08-30T16:11:42;36.90;27.50
11989;DHT22;6054;50.966;7.094;2022-08-30T16:14:09;36.80;27.90
11989;DHT22;6054;50.966;7.094;2022-08-30T16:16:36;36.70;27.30
11989;DHT22;6054;50.966;7.094;2022-08-30T16:19:03;36.60;27.50
11989;DHT22;6054;50.966;7.094;2022-08-30T16:21:33;36.50;27.70
11989;DHT22;6054;50.966;7.094;2022-08-30T16:24:03;36.50;28.00